createdAt,value
2018-09-14T00:00:02.256Z,3.2
2018-09-14T00:03:02.475Z,3.3
2018-09-14T00:06:02.301Z,3.2
2018-09-14T00:09:02.298Z,3.2
2018-09-14T00:12:02.365Z,3.2
2018-09-14T00:15:02.308Z,3.1
2018-09-14T00:18:02.899Z,3.1
2018-09-14T00:21:02.498Z,3.1
2018-09-14T00:24:02.287Z,3.1
2018-09-14T00:27:02.254Z,3.1
2018-09-14T00:30:02.568Z,3.1
2018-09-14T00:33:02.338Z,3.1
2018-09-14T00:36:02.286Z,3.1
2018-09-14T00:39:02.495Z,3.2
2018-09-14T00:42:02.385Z,3.3
2018-09-14T00:45:02.643Z,3.2
2018-09-14T00:48:02.423Z,3.2
2018-09-14T00:51:02.450Z,3.2
2018-09-14T00:54:02.487Z,3.3
2018-09-14T00:57:02.365Z,3.3
2018-09-14T01:00:02.426Z,3.1
2018-09-14T01:03:02.467Z,3.1
2018-09-14T01:06:02.696Z,3.2
2018-09-14T01:09:02.469Z,3.1
2018-09-14T01:12:02.360Z,3.1
2018-09-14T01:15:02.308Z,3
2018-09-14T01:18:02.199Z,3
2018-09-14T01:21:02.424Z,3.1
2018-09-14T01:24:02.621Z,3
2018-09-14T01:27:02.317Z,3
2018-09-14T01:30:02.581Z,3.2
2018-09-14T01:33:02.380Z,3.2
2018-09-14T01:36:02.415Z,3.1
2018-09-14T01:39:02.443Z,3.2
2018-09-14T01:42:02.564Z,3.1
2018-09-14T01:45:02.614Z,3.2
2018-09-14T01:48:02.394Z,3.1
2018-09-14T01:51:02.327Z,3
2018-09-14T01:54:02.412Z,3.2
2018-09-14T01:57:02.157Z,3.1
2018-09-14T02:00:02.565Z,3
2018-09-14T02:03:02.317Z,3
2018-09-14T02:06:02.759Z,3
2018-09-14T02:09:02.361Z,2.9
2018-09-14T02:12:02.413Z,3
2018-09-14T02:15:02.518Z,3.2
2018-09-14T02:18:02.346Z,3.1
2018-09-14T02:21:02.479Z,3.1
2018-09-14T02:24:02.476Z,3.2
2018-09-14T02:27:02.345Z,3.1
2018-09-14T02:30:02.376Z,3.1
2018-09-14T02:33:02.540Z,3
2018-09-14T02:36:02.474Z,3
2018-09-14T02:39:02.554Z,3
2018-09-14T02:42:02.368Z,3.1
2018-09-14T02:45:02.496Z,3
2018-09-14T02:48:02.343Z,3
2018-09-14T02:51:02.264Z,3.1
2018-09-14T02:54:02.434Z,3.1
2018-09-14T02:57:02.416Z,3
2018-09-14T03:00:03.127Z,3
2018-09-14T03:03:02.245Z,3
2018-09-14T03:06:02.324Z,2.9
2018-09-14T03:09:02.300Z,3
2018-09-14T03:12:02.342Z,3
2018-09-14T03:15:02.282Z,2.9
2018-09-14T03:18:02.506Z,3
2018-09-14T03:21:02.351Z,2.9
2018-09-14T03:24:02.571Z,3.1
2018-09-14T03:27:02.234Z,3.1
2018-09-14T03:30:02.409Z,3
2018-09-14T03:33:02.531Z,3
2018-09-14T03:36:02.350Z,3
2018-09-14T03:39:02.721Z,3
2018-09-14T03:42:02.494Z,2.9
2018-09-14T03:45:02.546Z,3.1
2018-09-14T03:48:02.628Z,2.9
2018-09-14T03:51:02.437Z,3
2018-09-14T03:54:02.410Z,2.9
2018-09-14T03:57:02.207Z,2.8
2018-09-14T04:00:02.338Z,2.9
2018-09-14T04:03:02.510Z,3
2018-09-14T04:06:02.452Z,3
2018-09-14T04:09:02.306Z,3.2
2018-09-14T04:12:02.295Z,3
2018-09-14T04:15:02.650Z,2.9
2018-09-14T04:18:02.595Z,2.9
2018-09-14T04:21:02.460Z,2.9
2018-09-14T04:24:02.477Z,2.9
2018-09-14T04:27:02.359Z,2.9
2018-09-14T04:30:02.585Z,2.8
2018-09-14T04:33:02.325Z,2.8
2018-09-14T04:36:02.331Z,2.8
2018-09-14T04:39:02.396Z,2.8
2018-09-14T04:42:02.267Z,2.8
2018-09-14T04:45:03.012Z,2.7
2018-09-14T04:48:02.494Z,2.7
2018-09-14T04:51:02.544Z,2.7
2018-09-14T04:54:02.510Z,2.8
2018-09-14T04:57:02.464Z,2.7
2018-09-14T05:00:02.333Z,2.7
2018-09-14T05:03:03.071Z,2.8
2018-09-14T05:06:02.360Z,2.8
2018-09-14T05:09:02.360Z,2.7
2018-09-14T05:12:02.438Z,2.7
2018-09-14T05:15:02.437Z,2.8
2018-09-14T05:18:02.352Z,2.7
2018-09-14T05:21:02.386Z,2.7
2018-09-14T05:24:02.930Z,2.6
2018-09-14T05:27:02.220Z,2.6
2018-09-14T05:30:02.491Z,2.6
2018-09-14T05:33:02.388Z,2.6
2018-09-14T05:36:02.586Z,2.6
2018-09-14T05:39:02.455Z,2.6
2018-09-14T05:42:02.655Z,2.6
2018-09-14T05:45:02.621Z,2.6
2018-09-14T05:48:02.235Z,2.6
2018-09-14T05:51:02.385Z,2.6
2018-09-14T05:54:02.347Z,2.6
2018-09-14T05:57:02.202Z,2.5
2018-09-14T06:00:02.420Z,2.5
2018-09-14T06:03:02.178Z,2.6
2018-09-14T06:06:02.169Z,2.5
2018-09-14T06:09:02.509Z,2.6
2018-09-14T06:12:02.691Z,2.6
2018-09-14T06:15:02.234Z,2.6
2018-09-14T06:18:02.547Z,2.6
2018-09-14T06:21:02.286Z,2.5
2018-09-14T06:24:02.620Z,2.6
2018-09-14T06:27:02.466Z,2.6
2018-09-14T06:30:02.542Z,2.4
2018-09-14T06:33:02.488Z,2.5
2018-09-14T06:36:02.291Z,2.5
2018-09-14T06:39:02.213Z,2.5
2018-09-14T06:42:02.426Z,2.5
2018-09-14T06:45:03.291Z,2.5
2018-09-14T06:48:02.378Z,2.5
2018-09-14T06:51:02.250Z,2.6
2018-09-14T06:54:02.482Z,2.5
2018-09-14T06:57:02.389Z,2.5
2018-09-14T07:00:03.125Z,2.4
2018-09-14T07:03:02.267Z,2.4
2018-09-14T07:06:02.214Z,2.4
2018-09-14T07:09:02.523Z,2.4
2018-09-14T07:12:02.665Z,2.5
2018-09-14T07:15:02.321Z,2.5
2018-09-14T07:18:02.404Z,2.5
2018-09-14T07:21:02.455Z,2.5
2018-09-14T07:24:02.145Z,2.4
2018-09-14T07:27:02.505Z,2.5
2018-09-14T07:30:03.099Z,2.5
2018-09-14T07:33:02.421Z,2.4
2018-09-14T07:36:02.639Z,2.5
2018-09-14T07:39:02.232Z,2.4
2018-09-14T07:42:02.331Z,2.5
2018-09-14T07:45:02.383Z,2.5
2018-09-14T07:48:02.243Z,2.5
2018-09-14T07:51:02.214Z,2.4
2018-09-14T07:54:02.204Z,2.3
2018-09-14T07:57:02.344Z,2.3
2018-09-14T08:00:02.296Z,2.3
2018-09-14T08:03:02.333Z,2.4
2018-09-14T08:06:02.817Z,2.3
2018-09-14T08:09:02.463Z,2.3
2018-09-14T08:12:03.472Z,2.3
2018-09-14T08:15:02.479Z,2.3
2018-09-14T08:18:02.599Z,2.4
2018-09-14T08:21:02.966Z,2.4
2018-09-14T08:24:02.299Z,2.4
2018-09-14T08:27:03.394Z,2.3
2018-09-14T08:30:02.711Z,2.3
2018-09-14T08:33:02.337Z,2.2
2018-09-14T08:36:02.199Z,2.2
2018-09-14T08:39:02.633Z,2.3
2018-09-14T08:42:02.337Z,2.3
2018-09-14T08:45:02.041Z,2.3
2018-09-14T08:48:03.827Z,2.4
2018-09-14T08:51:02.491Z,2.4
2018-09-14T08:54:02.353Z,2.4
2018-09-14T08:57:02.312Z,2.3
2018-09-14T09:00:02.446Z,2.4
2018-09-14T09:03:02.187Z,2.4
2018-09-14T09:06:02.356Z,2.4
2018-09-14T09:09:02.879Z,2.3
2018-09-14T09:12:02.286Z,2.2
2018-09-14T09:15:02.150Z,2.3
2018-09-14T09:18:02.374Z,2.2
2018-09-14T09:21:02.158Z,2.3
2018-09-14T09:24:02.309Z,2.3
2018-09-14T09:27:02.244Z,2.3
2018-09-14T09:30:02.555Z,2.3
2018-09-14T09:33:03.542Z,2.3
2018-09-14T09:36:02.272Z,2.3
2018-09-14T09:39:02.296Z,2.4
2018-09-14T09:42:02.537Z,2.3
2018-09-14T09:45:02.327Z,2.3
2018-09-14T09:48:02.398Z,2.2
2018-09-14T09:51:03.027Z,2.1
2018-09-14T09:54:02.194Z,2.2
2018-09-14T09:57:02.345Z,2.3
2018-09-14T10:00:03.757Z,2.2
2018-09-14T10:03:02.481Z,2.3
2018-09-14T10:06:02.218Z,2.2
2018-09-14T10:09:02.415Z,2.2
2018-09-14T10:12:02.365Z,2.2
2018-09-14T10:15:03.493Z,2.2
2018-09-14T10:18:02.140Z,2.1
2018-09-14T10:21:03.209Z,2.1
2018-09-14T10:24:02.284Z,2.1
2018-09-14T10:27:02.545Z,2.1
2018-09-14T10:30:02.642Z,2
2018-09-14T10:33:02.391Z,2
2018-09-14T10:36:02.187Z,2.1
2018-09-14T10:39:02.267Z,2.2
2018-09-14T10:42:02.155Z,2.2
2018-09-14T10:45:02.386Z,2.1
2018-09-14T10:48:02.171Z,2.2
2018-09-14T10:51:02.555Z,2.2
2018-09-14T10:54:02.555Z,2.2
2018-09-14T10:57:02.456Z,2.2
2018-09-14T11:00:02.107Z,2.2
2018-09-14T11:03:02.377Z,2.1
2018-09-14T11:06:02.172Z,2.1
2018-09-14T11:09:02.405Z,2.1
2018-09-14T11:12:02.236Z,2.1
2018-09-14T11:15:03.171Z,2
2018-09-14T11:18:02.198Z,2
2018-09-14T11:21:02.342Z,2
2018-09-14T11:24:02.230Z,2.1
2018-09-14T11:27:02.492Z,2.1
2018-09-14T11:30:02.081Z,2.2
2018-09-14T11:33:02.501Z,2
2018-09-14T11:36:02.523Z,2
2018-09-14T11:39:02.392Z,2
2018-09-14T11:42:02.429Z,1.9
2018-09-14T11:45:02.704Z,2
2018-09-14T11:48:03.099Z,2
2018-09-14T11:51:02.315Z,2
2018-09-14T11:54:02.809Z,1.9
2018-09-14T11:57:02.387Z,1.9
2018-09-14T12:00:02.143Z,1.9
2018-09-14T12:03:02.576Z,1.9
2018-09-14T12:06:02.135Z,1.9
2018-09-14T12:09:02.290Z,1.9
2018-09-14T12:12:01.910Z,1.9
2018-09-14T12:15:02.238Z,2
2018-09-14T12:18:03.094Z,1.9
2018-09-14T12:21:02.521Z,1.9
2018-09-14T12:24:02.196Z,2
2018-09-14T12:27:02.357Z,2
2018-09-14T12:30:02.359Z,1.9
2018-09-14T12:33:02.533Z,1.9
2018-09-14T12:36:02.167Z,1.9
2018-09-14T12:39:02.103Z,1.9
2018-09-14T12:42:02.668Z,1.9
2018-09-14T12:45:02.513Z,1.9
2018-09-14T12:48:02.422Z,2
2018-09-14T12:51:02.339Z,1.9
2018-09-14T12:54:02.454Z,1.9
2018-09-14T12:57:02.644Z,1.9
2018-09-14T13:00:02.318Z,2.2
2018-09-14T13:03:02.430Z,2.1
2018-09-14T13:06:02.296Z,2.3
2018-09-14T13:09:02.395Z,2.7
2018-09-14T13:12:02.114Z,2.6
2018-09-14T13:15:03.376Z,2.7
2018-09-14T13:18:02.101Z,3.9
2018-09-14T13:21:02.210Z,3.6
2018-09-14T13:24:02.425Z,3.7
2018-09-14T13:27:02.265Z,3.5
2018-09-14T13:30:02.162Z,3.3
2018-09-14T13:33:02.166Z,3
2018-09-14T13:36:02.048Z,3
2018-09-14T13:39:02.568Z,3
2018-09-14T13:42:02.261Z,3
2018-09-14T13:45:02.262Z,3.2
2018-09-14T13:48:02.094Z,3.6
2018-09-14T13:51:02.347Z,3.6
2018-09-14T13:54:02.332Z,4
2018-09-14T13:57:02.104Z,4.1
2018-09-14T14:00:02.448Z,4.4
2018-09-14T14:03:02.478Z,3.8
2018-09-14T14:06:02.509Z,3.9
2018-09-14T14:09:04.140Z,4.3
2018-09-14T14:12:02.476Z,3.6
2018-09-14T14:15:02.093Z,3.8
2018-09-14T14:18:02.140Z,3.7
2018-09-14T14:21:02.979Z,3.3
2018-09-14T14:24:02.617Z,3.4
2018-09-14T14:27:02.176Z,3.7
2018-09-14T14:30:02.299Z,5.1
2018-09-14T14:33:02.600Z,4.8
2018-09-14T14:36:02.154Z,4.2
2018-09-14T14:39:02.281Z,6.5
2018-09-14T14:42:02.127Z,5.4
2018-09-14T14:45:02.266Z,5.1
2018-09-14T14:48:02.062Z,5
2018-09-14T14:51:02.354Z,4.6
2018-09-14T14:54:02.282Z,5.8
2018-09-14T14:57:02.236Z,5
2018-09-14T15:00:02.206Z,5.1
2018-09-14T15:03:02.457Z,5.1
2018-09-14T15:06:02.437Z,4.7
2018-09-14T15:09:02.098Z,5
2018-09-14T15:12:02.511Z,4.6
2018-09-14T15:15:02.589Z,5.1
2018-09-14T15:18:02.422Z,5.2
2018-09-14T15:21:02.298Z,5.8
2018-09-14T15:24:03.043Z,6
2018-09-14T15:27:02.248Z,5
2018-09-14T15:30:02.347Z,4.3
2018-09-14T15:33:02.763Z,3.9
2018-09-14T15:36:02.328Z,4.5
2018-09-14T15:39:02.515Z,4.3
2018-09-14T15:42:02.533Z,5.4
2018-09-14T15:45:02.302Z,5.6
2018-09-14T15:48:02.487Z,5
2018-09-14T15:51:02.321Z,4.4
2018-09-14T15:54:02.410Z,4.5
2018-09-14T15:57:02.640Z,5
2018-09-14T16:00:02.381Z,4.2
2018-09-14T16:03:02.445Z,4.1
2018-09-14T16:06:02.136Z,4
2018-09-14T16:09:02.408Z,4.1
2018-09-14T16:12:02.186Z,4.4
2018-09-14T16:15:02.433Z,4.6
2018-09-14T16:18:02.160Z,4.9
2018-09-14T16:21:02.550Z,4.5
2018-09-14T16:24:02.377Z,4.1
2018-09-14T16:27:02.489Z,3.9
2018-09-14T16:30:02.510Z,3.6
2018-09-14T16:33:02.423Z,3.7
2018-09-14T16:36:02.291Z,4.2
2018-09-14T16:39:02.516Z,3.8
2018-09-14T16:42:02.100Z,4.7
2018-09-14T16:45:03.114Z,4.3
2018-09-14T16:48:02.042Z,4.3
2018-09-14T16:51:02.699Z,4.3
2018-09-14T16:54:02.253Z,3.8
2018-09-14T16:57:02.234Z,3.9
2018-09-14T17:00:02.127Z,4.8
2018-09-14T17:03:02.393Z,4.6
2018-09-14T17:06:02.264Z,4.1
2018-09-14T17:09:02.190Z,3.8
2018-09-14T17:12:02.051Z,4.1
2018-09-14T17:15:02.482Z,4.4
2018-09-14T17:18:02.235Z,4.2
2018-09-14T17:21:02.281Z,3.7
2018-09-14T17:24:02.126Z,3.6
2018-09-14T17:27:02.124Z,3.6
2018-09-14T17:30:02.452Z,3.2
2018-09-14T17:33:02.092Z,3.3
2018-09-14T17:36:02.069Z,3.8
2018-09-14T17:39:02.076Z,3.5
2018-09-14T17:42:02.151Z,4.2
2018-09-14T17:45:02.087Z,3.6
2018-09-14T17:48:02.218Z,3.7
2018-09-14T17:51:02.172Z,3.5
2018-09-14T17:54:03.258Z,3.3
2018-09-14T17:57:02.513Z,3.8
2018-09-14T18:00:02.129Z,3.7
2018-09-14T18:03:02.222Z,3.5
2018-09-14T18:06:02.360Z,8.4
2018-09-14T18:09:02.416Z,6.8
2018-09-14T18:12:02.111Z,6.9
2018-09-14T18:15:02.407Z,5.9
2018-09-14T18:18:02.028Z,6.2
2018-09-14T18:21:02.109Z,5.1
2018-09-14T18:24:02.460Z,5.2
2018-09-14T18:27:02.080Z,6.7
2018-09-14T18:30:02.776Z,6.2
2018-09-14T18:33:02.103Z,9.3
2018-09-14T18:36:03.274Z,7
2018-09-14T18:39:01.997Z,6.8
2018-09-14T18:42:02.180Z,7.3
2018-09-14T18:45:02.505Z,7.9
2018-09-14T18:48:02.275Z,7.9
2018-09-14T18:51:02.259Z,6.6
2018-09-14T18:54:02.660Z,6.9
2018-09-14T18:57:02.216Z,6.8
2018-09-14T19:00:02.147Z,5.9
2018-09-14T19:03:01.956Z,5.7
2018-09-14T19:06:02.099Z,5.8
2018-09-14T19:09:02.220Z,5.7
2018-09-14T19:12:02.215Z,6
2018-09-14T19:15:02.865Z,6.1
2018-09-14T19:18:02.978Z,5
2018-09-14T19:21:02.613Z,5.7
2018-09-14T19:24:02.967Z,5.3
2018-09-14T19:27:02.999Z,5.4
2018-09-14T19:30:02.938Z,5.2
2018-09-14T19:33:02.873Z,5.2
2018-09-14T19:36:02.247Z,6.6
2018-09-14T19:39:02.414Z,5.7
2018-09-14T19:42:01.983Z,4.8
2018-09-14T19:45:02.636Z,4.8
2018-09-14T19:48:03.037Z,4.8
2018-09-14T19:51:04.043Z,5
2018-09-14T19:54:02.721Z,4.3
2018-09-14T19:57:02.383Z,4.7
2018-09-14T20:00:03.002Z,6.1
2018-09-14T20:03:02.596Z,5.3
2018-09-14T20:06:03.524Z,4.8
2018-09-14T20:09:02.366Z,4.6
2018-09-14T20:12:02.982Z,4.4
2018-09-14T20:15:02.561Z,4.3
2018-09-14T20:18:02.049Z,4.6
2018-09-14T20:21:03.088Z,4
2018-09-14T20:24:02.513Z,3.6
2018-09-14T20:27:01.994Z,4.5
2018-09-14T20:30:02.005Z,4
2018-09-14T20:33:02.452Z,3.7
2018-09-14T20:36:02.254Z,4.2
2018-09-14T20:39:02.400Z,5.1
2018-09-14T20:42:03.100Z,4.4
2018-09-14T20:45:02.029Z,4.2
2018-09-14T20:48:02.532Z,3.7
2018-09-14T20:51:04.275Z,3.6
2018-09-14T20:54:02.771Z,3.5
2018-09-14T20:57:02.062Z,3.4
2018-09-14T21:00:02.207Z,3.2
2018-09-14T21:03:02.280Z,3
2018-09-14T21:06:02.150Z,3.2
2018-09-14T21:09:02.293Z,3.6
2018-09-14T21:12:02.097Z,3.1
2018-09-14T21:15:02.754Z,3.3
2018-09-14T21:18:02.379Z,4
2018-09-14T21:21:04.689Z,4.2
2018-09-14T21:24:04.488Z,3.5
2018-09-14T21:27:02.222Z,3.4
2018-09-14T21:30:03.969Z,3.3
2018-09-14T21:33:02.174Z,3.4
2018-09-14T21:36:02.401Z,3.1
2018-09-14T21:39:03.077Z,3.1
2018-09-14T21:42:02.605Z,3.2
2018-09-14T21:45:02.113Z,3.4
2018-09-14T21:48:05.140Z,3.3
2018-09-14T21:51:04.523Z,3.5
2018-09-14T21:54:05.401Z,3.8
2018-09-14T21:57:04.666Z,3.3
2018-09-14T22:00:04.708Z,3.1
2018-09-14T22:03:04.736Z,2.9
2018-09-14T22:06:02.268Z,2.9
2018-09-14T22:09:02.123Z,2.9
2018-09-14T22:12:02.585Z,3
2018-09-14T22:15:02.710Z,2.8
2018-09-14T22:18:02.748Z,2.9
2018-09-14T22:21:02.478Z,3
2018-09-14T22:24:02.578Z,3.9
2018-09-14T22:27:02.780Z,3.4
2018-09-14T22:30:03.109Z,3.1
2018-09-14T22:33:02.237Z,3.1
2018-09-14T22:36:02.435Z,2.9
2018-09-14T22:39:03.039Z,3.1
2018-09-14T22:42:02.646Z,2.9
2018-09-14T22:45:02.642Z,2.9
2018-09-14T22:48:02.522Z,2.7
2018-09-14T22:51:01.965Z,2.7
2018-09-14T22:54:02.508Z,2.7
2018-09-14T22:57:04.291Z,2.7
2018-09-14T23:00:03.080Z,2.8
2018-09-14T23:03:02.728Z,2.8
2018-09-14T23:06:02.531Z,2.6
2018-09-14T23:09:01.961Z,2.6
2018-09-14T23:12:02.823Z,2.6
2018-09-14T23:15:01.961Z,2.8
2018-09-14T23:18:03.562Z,2.7
2018-09-14T23:21:01.951Z,2.6
2018-09-14T23:24:02.085Z,2.6
2018-09-14T23:27:01.950Z,2.6
2018-09-14T23:30:02.006Z,2.7
2018-09-14T23:33:01.900Z,2.8
2018-09-14T23:36:02.114Z,2.7
2018-09-14T23:39:02.019Z,2.6
2018-09-14T23:42:01.932Z,2.6
2018-09-14T23:45:02.038Z,2.7
2018-09-14T23:48:05.765Z,2.8
2018-09-14T23:51:01.844Z,2.7
2018-09-14T23:54:01.983Z,3
2018-09-14T23:57:02.035Z,2.9
